Aviation Digital Data Service (ADDS)

Output produced by METARs form (2122 UTC 24 March 2019)
found at http://www.aviationweather.gov/metar/data/
 
WABB 242100Z 00000KT 9999 FEW018 SCT100 25/24 Q1010 NOSIG
TAF WABB 241700Z 2418/2600 00000KT 9999 FEW018 
     BECMG 2422/2500 34005KT
       
WAAA 242100Z VRB02KT 8000 FEW019 24/24 Q1009 NOSIG
TAF WAAA 241700Z 2418/2600 09005KT 8000 SCT019 
     BECMG 2501/2503 32010KT 9999 
     BECMG 2511/2513 00000KT 8000
       
WAPP 242100Z 36006KT 330V030 9999 FEW021 24/23 Q1009 NOSIG
TAF WAPP 241700Z 2418/2518 35008KT 9999 SCT019
       
WIMM 242100Z 27004KT 6000 SCT017 26/24 Q1008 NOSIG
TAF WIMM 241700Z 2418/2518 24005KT 4000 HZ SCT017 
     TEMPO 2421/2423 3000 BR 
     BECMG 2502/2504 35010KT 9000 NSW
       
WAMM 242100Z 15002KT 9999 FEW022 24/22 Q1010 NOSIG
TAF WAMM 241700Z 2418/2524 14002KT 9000 SCT022 
     BECMG 2423/2501 34008KT
       
WIII 242100Z 26007KT 6000 FEW020 25/23 Q1008 NOSIG
TAF WIII 241700Z 2418/2524 27008KT 6000 SCT020
       
TAF WITT 241700Z 2418/2518 14004KT 8000 FEW020 
     BECMG 2503/2505 35010KT 9999 SCT018 
     BECMG 2512/2514 VRB05KT FEW020
       
WIPP 242100Z 31003KT 1600 BR FEW010 25/24 Q1008
TAF WIPP 241700Z 2418/2518 32006KT 9999 SCT010 
     TEMPO 2420/2424 1500 BR 
     TEMPO 2509/2513 1500 TSRA BKN010 FEW012CB
       
WIBB 242100Z 00000KT 8000 SCT012 26/23 Q1008